Time;durP1;ratioP1;P1;durP2;ratioP2;P2;SDS_P1;SDS_P2;PMS_P1;PMS_P2;Temp;Humidity;BMP_temperature;BMP_pressure;BME280_temperature;BME280_humidity;BME280_pressure;Samples;Min_cycle;Max_cycle;Signal;HPM_P1;HPM_P2
2021/04/20 00:02:23;;;;;;;11.43;4.13;;;;;;;16.65;61.37;100475.50;4991646;28;20487;-66
2021/04/20 00:04:52;;;;;;;7.85;4.43;;;;;;;16.43;61.65;100453.84;4991917;28;20616;-70
2021/04/20 00:07:19;;;;;;;8.57;5.10;;;;;;;16.51;61.69;100458.69;4988652;28;20193;-69
2021/04/20 00:09:45;;;;;;;8.43;3.80;;;;;;;16.50;61.77;100471.13;4992467;28;20046;-78
2021/04/20 00:12:12;;;;;;;11.60;5.47;;;;;;;16.40;61.86;100463.78;4989072;28;20180;-75
2021/04/20 00:14:38;;;;;;;9.13;4.07;;;;;;;16.36;61.97;100465.56;4989323;28;20065;-70
2021/04/20 00:17:06;;;;;;;9.80;5.03;;;;;;;16.23;62.55;100460.84;4988166;28;20455;-67
2021/04/20 00:19:32;;;;;;;6.87;4.60;;;;;;;16.12;62.91;100454.63;4989485;28;20355;-74
2021/04/20 00:22:00;;;;;;;10.10;4.90;;;;;;;16.08;63.18;100464.88;4990348;28;20053;-71
2021/04/20 00:24:26;;;;;;;7.73;4.17;;;;;;;16.00;63.28;100455.22;4984541;28;20162;-67
2021/04/20 00:26:53;;;;;;;8.77;3.97;;;;;;;15.79;63.74;100446.41;4989475;28;20125;-74
2021/04/20 00:29:19;;;;;;;13.23;4.93;;;;;;;15.81;64.27;100463.84;4988145;28;20049;-76
2021/04/20 00:31:45;;;;;;;10.07;4.47;;;;;;;15.74;63.89;100449.38;4993388;28;20049;-75
2021/04/20 00:34:11;;;;;;;11.03;4.77;;;;;;;15.75;64.30;100459.47;4987333;28;20050;-74
2021/04/20 00:36:38;;;;;;;11.47;4.47;;;;;;;15.74;64.46;100471.88;4991344;28;20124;-74
2021/04/20 00:39:04;;;;;;;8.37;5.23;;;;;;;15.79;64.30;100468.09;4988122;28;20054;-69
2021/04/20 00:41:31;;;;;;;9.33;5.20;;;;;;;15.70;64.95;100462.41;4991918;28;20053;-68
2021/04/20 00:43:57;;;;;;;14.73;5.87;;;;;;;15.46;64.71;100422.44;4988007;28;20049;-70
2021/04/20 00:46:24;;;;;;;13.93;5.17;;;;;;;15.75;64.74;100456.66;4986479;28;20153;-70
2021/04/20 00:48:51;;;;;;;14.77;4.83;;;;;;;15.73;64.79;100449.69;4990671;28;20042;-69
2021/04/20 00:51:19;;;;;;;10.57;4.63;;;;;;;15.61;65.08;100431.31;4985451;28;20453;-70
2021/04/20 00:53:45;;;;;;;7.27;3.80;;;;;;;15.63;65.26;100445.09;4989336;28;20479;-71
2021/04/20 00:56:12;;;;;;;13.27;4.43;;;;;;;15.63;65.03;100433.84;4990560;28;20049;-76
2021/04/20 00:58:38;;;;;;;9.27;4.30;;;;;;;15.65;65.32;100451.22;4989971;28;20056;-74
2021/04/20 01:01:05;;;;;;;8.80;4.80;;;;;;;15.63;65.41;100442.28;4986930;28;20391;-76
2021/04/20 01:03:32;;;;;;;7.63;3.80;;;;;;;15.69;64.87;100435.44;4992153;28;20060;-68
2021/04/20 01:06:48;;;;;;;8.10;4.67;;;;;;;15.65;65.28;100431.53;4987445;28;20046;-67
2021/04/20 01:09:16;;;;;;;9.83;3.87;;;;;;;15.63;65.33;100419.78;4986921;28;20141;-69
2021/04/20 01:11:44;;;;;;;9.83;4.20;;;;;;;15.63;65.63;100431.03;4989866;28;20051;-69
2021/04/20 01:14:10;;;;;;;7.50;3.53;;;;;;;15.56;65.78;100417.38;4985295;28;20424;-69
2021/04/20 01:16:37;;;;;;;6.20;3.97;;;;;;;15.49;66.10;100402.09;4988229;28;20736;-71
2021/04/20 01:19:06;;;;;;;7.87;3.93;;;;;;;15.37;66.10;100397.00;4984050;28;20050;-69
2021/04/20 01:21:43;;;;;;;9.93;4.33;;;;;;;15.54;66.23;100418.84;4988647;28;20061;-67
2021/04/20 01:24:09;;;;;;;12.70;5.47;;;;;;;15.57;66.19;100421.03;4988131;28;20405;-62
2021/04/20 01:26:41;;;;;;;7.97;4.13;;;;;;;15.54;66.09;100404.78;4986973;28;20438;-61
2021/04/20 01:29:08;;;;;;;11.33;4.77;;;;;;;15.61;66.17;100416.44;4982144;28;20459;-63
2021/04/20 01:31:36;;;;;;;15.60;5.90;;;;;;;15.62;66.01;100409.63;4986288;28;20423;-61
2021/04/20 01:34:04;;;;;;;7.00;4.43;;;;;;;15.56;65.84;100391.22;4988730;28;20047;-65
2021/04/20 01:36:30;;;;;;;14.40;4.77;;;;;;;15.68;65.73;100416.84;4985285;28;20050;-65
2021/04/20 01:38:58;;;;;;;8.57;4.80;;;;;;;15.72;65.49;100411.41;4987569;28;20042;-61
2021/04/20 01:41:35;;;;;;;14.17;4.77;;;;;;;15.72;65.23;100403.78;4989869;28;20057;-64
2021/04/20 01:44:03;;;;;;;7.07;4.57;;;;;;;15.76;65.11;100412.44;4985406;28;20038;-65
2021/04/20 01:46:30;;;;;;;12.80;5.43;;;;;;;15.70;65.06;100411.75;4983210;28;20412;-63
2021/04/20 01:48:56;;;;;;;10.17;5.00;;;;;;;15.68;64.76;100394.31;4986839;28;20057;-66
2021/04/20 01:51:27;;;;;;;10.57;5.40;;;;;;;15.84;64.74;100403.25;4986235;28;20053;-64
2021/04/20 01:53:54;;;;;;;15.57;6.50;;;;;;;15.97;64.54;100409.97;4984700;28;20054;-66
2021/04/20 01:56:25;;;;;;;10.23;5.10;;;;;;;15.87;65.00;100378.09;4988503;28;20050;-63
2021/04/20 01:58:52;;;;;;;19.97;6.60;;;;;;;16.06;65.10;100396.75;4988375;28;20074;-65
2021/04/20 02:01:25;;;;;;;10.37;5.67;;;;;;;16.06;65.26;100391.94;4983953;28;20166;-64
2021/04/20 02:03:53;;;;;;;14.43;6.37;;;;;;;16.05;65.30;100392.28;4983608;28;20050;-63
2021/04/20 02:06:25;;;;;;;20.03;7.03;;;;;;;15.68;65.39;100340.00;4980161;28;20139;-66
2021/04/20 02:08:52;;;;;;;15.07;7.10;;;;;;;15.92;65.71;100385.56;4984884;28;20057;-65
2021/04/20 02:11:21;;;;;;;13.13;6.67;;;;;;;16.02;65.90;100396.56;4989518;28;20494;-65
2021/04/20 02:13:49;;;;;;;12.80;5.90;;;;;;;16.08;65.96;100397.28;4983752;28;20415;-67
2021/04/20 02:16:16;;;;;;;10.47;5.90;;;;;;;16.06;65.78;100382.69;4986798;28;20045;-64
2021/04/20 02:18:45;;;;;;;10.80;6.00;;;;;;;16.17;65.59;100392.53;4988751;28;20152;-66
2021/04/20 02:21:17;;;;;;;9.47;5.13;;;;;;;16.17;65.14;100384.09;4989319;28;20046;-70
2021/04/20 02:23:44;;;;;;;11.00;5.87;;;;;;;16.18;65.01;100379.28;4985018;28;20061;-66
2021/04/20 02:26:18;;;;;;;13.87;4.90;;;;;;;16.09;65.08;100365.97;4989477;28;20045;-63
2021/04/20 02:28:45;;;;;;;11.07;5.40;;;;;;;16.08;65.21;100364.31;4986911;28;20073;-65
2021/04/20 02:31:11;;;;;;;7.77;4.37;;;;;;;15.96;65.20;100349.97;4982505;28;20137;-66
2021/04/20 02:33:42;;;;;;;8.68;4.10;;;;;;;16.08;65.13;100363.47;4988085;28;20042;-66
2021/04/20 02:36:10;;;;;;;10.63;4.63;;;;;;;16.10;65.12;100372.41;4989663;28;20054;-65
2021/04/20 02:38:36;;;;;;;8.97;5.23;;;;;;;16.13;65.28;100377.41;4988451;28;20057;-66
2021/04/20 02:41:04;;;;;;;11.63;4.50;;;;;;;15.81;65.65;100331.50;4984747;22;20043;-73
2021/04/20 02:43:32;;;;;;;7.90;4.47;;;;;;;15.81;65.64;100337.13;4961016;28;20057;-73
2021/04/20 02:46:00;;;;;;;11.73;5.20;;;;;;;16.04;65.58;100360.47;4958129;28;20142;-71
2021/04/20 02:48:28;;;;;;;9.47;5.00;;;;;;;15.86;65.79;100339.81;4962144;28;20102;-73
2021/04/20 02:50:55;;;;;;;11.30;4.63;;;;;;;15.94;66.24;100362.72;4960356;28;20065;-73
2021/04/20 02:53:24;;;;;;;11.93;5.53;;;;;;;15.89;66.00;100355.22;4961742;28;20102;-77
2021/04/20 02:55:50;;;;;;;8.50;5.50;;;;;;;15.87;66.34;100364.00;4959553;28;20049;-74
2021/04/20 02:58:19;;;;;;;9.47;5.57;;;;;;;15.74;66.70;100353.66;4957586;28;20051;-78
2021/04/20 03:01:16;;;;;;;7.57;4.83;;;;;;;15.71;66.99;100356.25;4966979;28;20134;-73
2021/04/20 03:03:44;;;;;;;10.47;5.57;;;;;;;15.55;66.86;100328.44;4956450;28;20047;-72
2021/04/20 03:06:11;;;;;;;12.00;5.33;;;;;;;15.60;67.02;100344.41;4962833;28;20047;-75
2021/04/20 03:08:41;;;;;;;10.50;5.70;;;;;;;15.55;67.12;100338.88;4961516;28;20129;-71
2021/04/20 03:11:20;;;;;;;12.43;5.37;;;;;;;15.53;67.39;100336.41;4958261;28;20043;-73
2021/04/20 03:13:46;;;;;;;9.43;5.07;;;;;;;15.45;67.47;100325.06;4962265;28;20393;-72
2021/04/20 03:16:27;;;;;;;9.03;5.03;;;;;;;15.46;67.58;100321.94;4964508;28;20082;-75
2021/04/20 03:18:55;;;;;;;7.77;4.63;;;;;;;15.53;67.91;100349.66;4965143;28;20071;-75
2021/04/20 03:21:22;;;;;;;11.37;4.63;;;;;;;15.51;68.07;100351.94;4967095;28;20039;-78
2021/04/20 03:23:53;;;;;;;;;;;;;;;15.61;67.72;100348.88;4960045;28;20485;-74
2021/04/20 03:26:25;;;;;;;9.40;5.87;;;;;;;15.53;67.97;100335.56;4960661;28;19930;-75
2021/04/20 03:29:02;;;;;;;9.30;5.63;;;;;;;15.54;68.12;100331.59;4964476;28;20381;-74
2021/04/20 03:31:29;;;;;;;11.20;5.30;;;;;;;15.55;67.79;100322.00;4964200;28;20134;-73
2021/04/20 03:34:16;;;;;;;17.97;7.13;;;;;;;15.69;67.62;100330.41;4960306;28;20047;-73
2021/04/20 03:37:00;;;;;;;15.93;6.00;;;;;;;15.60;68.28;100330.31;4945323;28;20483;-75
2021/04/20 03:39:29;;;;;;;17.13;7.30;;;;;;;15.50;68.31;100324.94;4960845;28;20058;-73
2021/04/20 03:41:58;;;;;;;12.83;7.03;;;;;;;15.59;68.22;100334.31;4960374;28;20118;-74
2021/04/20 03:44:34;;;;;;;13.10;6.90;;;;;;;15.58;68.12;100319.38;4962759;28;20497;-74
2021/04/20 03:47:06;;;;;;;12.53;6.27;;;;;;;15.41;68.65;100316.44;4963916;28;20491;-74
2021/04/20 03:49:36;;;;;;;13.13;6.60;;;;;;;15.39;68.91;100324.38;4959170;28;20047;-74
2021/04/20 03:52:07;;;;;;;15.32;6.45;;;;;;;15.36;68.47;100308.94;4961000;28;20396;-75
2021/04/20 03:54:34;;;;;;;11.33;5.93;;;;;;;15.33;68.51;100303.13;4962603;28;20063;-74
2021/04/20 03:57:02;;;;;;;9.80;5.47;;;;;;;15.38;68.69;100315.09;4957378;28;20054;-76
2021/04/20 03:59:31;;;;;;;10.90;6.00;;;;;;;15.34;68.67;100316.03;4957517;28;20058;-76
2021/04/20 04:01:59;;;;;;;11.45;6.10;;;;;;;15.26;69.27;100314.00;4961368;28;20090;-77
2021/04/20 04:04:28;;;;;;;6.63;4.00;;;;;;;15.20;69.55;100316.09;4964607;28;20046;-76
2021/04/20 04:06:55;;;;;;;12.77;5.40;;;;;;;15.17;69.37;100306.28;4945233;28;20066;-77
2021/04/20 04:09:25;;;;;;;12.55;6.13;;;;;;;15.28;69.02;100318.16;4964354;28;20054;-73
2021/04/20 04:11:55;;;;;;;9.73;5.83;;;;;;;15.43;68.65;100319.75;4958159;28;20055;-77
2021/04/20 04:14:29;;;;;;;15.82;6.82;;;;;;;15.44;68.73;100314.97;4958869;28;20125;-76
2021/04/20 04:17:02;;;;;;;10.67;5.60;;;;;;;15.48;68.57;100296.28;4966737;28;20543;-76
2021/04/20 04:19:31;;;;;;;9.93;5.63;;;;;;;15.49;68.65;100312.88;4960732;28;20043;-73
2021/04/20 04:22:11;;;;;;;10.93;5.67;;;;;;;15.40;69.00;100309.16;4960901;28;20134;-76
2021/04/20 04:24:53;;;;;;;10.45;4.78;;;;;;;15.49;68.69;100310.06;4959992;28;20067;-75
2021/04/20 04:27:25;;;;;;;9.10;4.53;;;;;;;15.46;68.78;100304.22;4965128;28;20129;-76
2021/04/20 04:29:56;;;;;;;8.90;4.40;;;;;;;15.29;68.96;100283.25;4957576;28;20142;-77
2021/04/20 04:32:24;;;;;;;11.40;5.23;;;;;;;15.27;69.00;100285.53;4959818;28;20047;-75
2021/04/20 04:34:51;;;;;;;7.07;4.20;;;;;;;15.36;68.88;100297.69;4959629;28;20044;-72
2021/04/20 04:37:18;;;;;;;7.47;4.70;;;;;;;15.50;68.74;100303.25;4957321;28;20135;-71
2021/04/20 04:39:45;;;;;;;10.13;5.30;;;;;;;15.53;68.65;100290.53;4959531;28;20427;-70
2021/04/20 04:42:12;;;;;;;8.27;4.60;;;;;;;15.62;68.63;100294.22;4964508;28;20053;-72
2021/04/20 04:44:39;;;;;;;8.37;4.33;;;;;;;15.56;68.89;100295.53;4962813;28;20051;-72
2021/04/20 04:47:07;;;;;;;8.80;5.30;;;;;;;15.33;69.21;100273.00;4957321;28;20054;-71
2021/04/20 04:49:36;;;;;;;8.38;4.40;;;;;;;15.37;69.33;100279.66;4957699;28;20078;-71
2021/04/20 04:52:04;;;;;;;11.37;5.03;;;;;;;15.15;69.89;100274.88;4961401;28;20053;-71
2021/04/20 04:54:31;;;;;;;7.30;4.43;;;;;;;15.07;70.64;100283.22;4957477;28;20141;-71
2021/04/20 04:57:00;;;;;;;7.40;4.30;;;;;;;14.88;71.44;100281.41;4957664;28;20114;-72
2021/04/20 04:59:32;;;;;;;9.13;3.77;;;;;;;14.82;71.55;100267.78;4960509;28;20051;-70
2021/04/20 05:01:58;;;;;;;7.10;4.30;;;;;;;14.83;72.08;100278.69;4959716;28;20423;-73
2021/04/20 05:04:25;;;;;;;9.73;5.07;;;;;;;14.78;72.23;100278.00;4941545;28;20133;-73
2021/04/20 05:06:52;;;;;;;6.80;3.53;;;;;;;14.78;72.43;100278.81;4965971;28;20142;-74
2021/04/20 05:09:23;;;;;;;7.03;3.93;;;;;;;14.66;72.71;100267.28;4962464;28;20047;-78
2021/04/20 05:11:50;;;;;;;;;;;;;;;14.81;72.77;100285.78;4956958;28;20043;-73
2021/04/20 05:14:21;;;;;;;11.10;4.73;;;;;;;14.61;72.79;100257.00;4959457;28;20286;-75
2021/04/20 05:16:52;;;;;;;6.67;4.00;;;;;;;14.66;72.97;100275.69;4959272;28;20051;-76
2021/04/20 05:19:25;;;;;;;6.33;3.53;;;;;;;14.63;73.33;100273.53;4959138;28;20516;-76
2021/04/20 05:21:52;;;;;;;10.07;3.80;;;;;;;14.55;73.67;100274.28;4965038;28;20133;-68
2021/04/20 05:24:20;;;;;;;6.30;3.10;;;;;;;14.55;73.85;100277.91;4958537;28;20533;-66
2021/04/20 05:26:46;;;;;;;4.87;3.20;;;;;;;14.60;73.04;100257.31;4961841;28;20051;-71
2021/04/20 05:29:13;;;;;;;6.63;2.47;;;;;;;14.56;73.44;100268.31;4956162;28;20051;-68
2021/04/20 05:31:43;;;;;;;3.63;1.90;;;;;;;14.56;73.19;100257.09;4972441;28;20554;-69
2021/04/20 05:34:11;;;;;;;7.10;2.80;;;;;;;14.64;73.04;100263.97;4958292;28;20411;-67
2021/04/20 05:36:38;;;;;;;3.87;2.70;;;;;;;14.76;72.58;100277.47;4959299;28;20082;-68
2021/04/20 05:39:08;;;;;;;4.27;2.33;;;;;;;14.71;72.76;100261.56;4967933;28;20058;-72
2021/04/20 05:41:36;;;;;;;5.50;2.45;;;;;;;14.70;72.73;100265.53;4964065;28;20050;-77
2021/04/20 05:44:07;;;;;;;5.00;3.03;;;;;;;14.78;72.71;100273.19;4960349;28;20051;-72
2021/04/20 05:46:38;;;;;;;6.00;3.57;;;;;;;14.68;72.90;100270.63;4967960;28;20038;-73
2021/04/20 05:49:05;;;;;;;5.63;3.70;;;;;;;14.73;72.77;100267.69;4963313;28;20046;-72
2021/04/20 05:51:32;;;;;;;5.77;3.40;;;;;;;14.89;72.47;100282.22;4960842;28;20054;-81
2021/04/20 05:53:59;;;;;;;6.57;3.53;;;;;;;14.91;72.28;100279.94;4960278;28;20528;-70
2021/04/20 05:56:26;;;;;;;5.77;3.70;;;;;;;14.87;72.34;100262.88;4964445;28;20043;-74
2021/04/20 05:58:54;;;;;;;5.40;2.93;;;;;;;14.82;72.83;100274.22;4959968;28;20047;-78
2021/04/20 06:01:23;;;;;;;4.73;2.97;;;;;;;14.64;72.41;100235.84;4946022;28;20050;-72
2021/04/20 06:03:50;;;;;;;6.47;3.27;;;;;;;14.94;72.55;100284.94;4964612;28;20448;-71
2021/04/20 06:06:19;;;;;;;5.77;3.27;;;;;;;14.90;72.48;100279.09;4966181;28;20054;-68
2021/04/20 06:08:48;;;;;;;5.85;3.63;;;;;;;14.91;72.42;100268.69;4965733;28;20050;-69
2021/04/20 06:11:15;;;;;;;7.23;3.60;;;;;;;15.05;72.06;100280.72;4961532;28;20047;-67
2021/04/20 06:13:45;;;;;;;7.03;3.67;;;;;;;15.14;71.91;100292.03;4961942;28;20130;-71
2021/04/20 06:16:14;;;;;;;6.30;4.20;;;;;;;15.16;71.64;100282.13;4958033;28;20400;-72
2021/04/20 06:18:42;;;;;;;8.80;4.20;;;;;;;15.18;71.92;100295.91;4963464;28;20055;-70
2021/04/20 06:21:11;;;;;;;11.27;4.13;;;;;;;15.15;71.79;100285.28;4963311;28;20130;-73
2021/04/20 06:23:37;;;;;;;8.83;4.53;;;;;;;15.12;72.03;100288.72;4960872;28;20043;-74
2021/04/20 06:26:06;;;;;;;10.83;5.57;;;;;;;15.19;71.73;100291.09;4964016;28;20042;-71
2021/04/20 06:28:33;;;;;;;9.50;5.00;;;;;;;15.23;71.60;100292.13;4957959;28;20058;-75
2021/04/20 06:31:03;;;;;;;13.50;4.77;;;;;;;15.29;71.65;100296.50;4958254;28;20043;-73
2021/04/20 06:33:31;;;;;;;;;;;;;;;15.41;71.53;100294.75;4962358;28;20065;-73
2021/04/20 06:36:00;;;;;;;11.27;4.60;;;;;;;15.44;71.33;100304.53;4946038;28;19921;-74
2021/04/20 06:38:28;;;;;;;12.65;4.80;;;;;;;15.37;71.36;100299.34;4959986;28;20935;-72
2021/04/20 06:40:56;;;;;;;9.20;4.63;;;;;;;15.21;71.65;100278.38;4951046;28;20133;-74
2021/04/20 06:43:34;;;;;;;16.43;6.10;;;;;;;15.35;71.42;100298.84;4962033;28;20057;-73
2021/04/20 06:46:09;;;;;;;12.38;5.70;;;;;;;15.40;71.30;100309.97;4960756;28;20055;-74
2021/04/20 06:48:46;;;;;;;10.60;5.50;;;;;;;15.36;71.44;100300.50;4959463;28;20492;-74
2021/04/20 06:51:15;;;;;;;9.80;5.60;;;;;;;15.40;71.52;100312.78;4959058;28;20102;-73
2021/04/20 06:53:46;;;;;;;11.13;5.50;;;;;;;15.35;71.48;100306.44;4953737;28;20134;-72
2021/04/20 06:56:35;;;;;;;17.03;5.73;;;;;;;15.45;71.56;100311.00;4952595;28;20054;-72
2021/04/20 06:59:41;;;;;;;6.73;3.30;;;;;;;15.32;71.75;100319.19;4963972;28;20488;-73
2021/04/20 07:02:32;;;;;;;4.10;2.43;;;;;;;15.18;71.84;100324.03;4957379;28;20083;-72
2021/04/20 07:05:00;;;;;;;3.57;2.27;;;;;;;15.13;71.79;100310.06;4940437;28;20043;-74
2021/04/20 07:07:39;;;;;;;5.93;2.93;;;;;;;15.13;71.87;100316.53;4960059;28;20074;-73
2021/04/20 07:10:14;;;;;;;9.53;4.00;;;;;;;15.15;71.87;100319.88;4960561;28;20471;-74
2021/04/20 07:12:47;;;;;;;7.27;3.17;;;;;;;15.04;71.99;100304.38;4957683;28;20059;-74
2021/04/20 07:15:17;;;;;;;7.63;3.47;;;;;;;15.07;71.98;100317.78;4957179;28;20071;-74
2021/04/20 07:17:58;;;;;;;7.67;3.30;;;;;;;15.14;71.85;100320.16;4959611;28;20126;-72
2021/04/20 07:21:02;;;;;;;9.93;3.77;;;;;;;15.18;71.81;100315.59;4957415;28;20047;-72
2021/04/20 07:23:47;;;;;;;8.87;3.70;;;;;;;15.23;71.86;100321.09;4961301;28;20138;-73
2021/04/20 07:26:16;;;;;;;6.47;4.23;;;;;;;15.27;71.87;100321.28;4954439;28;20429;-73
2021/04/20 07:28:58;;;;;;;9.85;4.63;;;;;;;15.21;71.87;100312.13;4954109;28;20130;-74
2021/04/20 07:31:36;;;;;;;11.20;4.73;;;;;;;15.21;72.00;100303.69;4954021;28;20141;-72
2021/04/20 07:34:14;;;;;;;12.50;5.40;;;;;;;15.29;72.16;100305.75;4954377;28;20055;-73
2021/04/20 07:37:04;;;;;;;8.30;4.40;;;;;;;15.49;72.05;100328.94;4955071;28;20134;-74
2021/04/20 07:39:53;;;;;;;9.97;5.30;;;;;;;15.48;71.97;100315.97;4954033;28;20047;-73
2021/04/20 07:42:26;;;;;;;7.87;4.03;;;;;;;15.54;71.98;100317.53;4956207;28;20078;-74
2021/04/20 07:45:21;;;;;;;7.13;4.10;;;;;;;15.60;71.83;100319.06;4965840;28;20403;-74
2021/04/20 07:47:55;;;;;;;7.83;4.10;;;;;;;15.61;72.09;100315.91;4954340;28;20051;-73
2021/04/20 07:50:27;;;;;;;9.90;4.13;;;;;;;15.79;72.22;100328.16;4959986;28;20047;-74
2021/04/20 07:53:12;;;;;;;8.53;3.80;;;;;;;15.89;72.50;100329.88;4954143;28;20481;-73
2021/04/20 07:56:17;;;;;;;11.50;4.60;;;;;;;16.02;71.89;100326.16;4954631;28;20146;-73
2021/04/20 07:58:49;;;;;;;7.20;4.03;;;;;;;16.06;71.97;100327.16;4943710;28;20162;-72
2021/04/20 08:01:38;;;;;;;7.10;3.83;;;;;;;16.19;72.06;100328.22;4957281;28;20058;-73
2021/04/20 08:04:30;;;;;;;7.90;4.32;;;;;;;16.29;71.51;100335.56;4957263;28;20046;-75
2021/04/20 08:07:05;;;;;;;8.33;4.03;;;;;;;16.48;71.77;100333.34;4960166;28;20504;-75
2021/04/20 08:09:38;;;;;;;6.80;3.60;;;;;;;16.66;71.48;100333.41;4956955;28;20070;-73
2021/04/20 08:12:11;;;;;;;10.20;4.27;;;;;;;16.93;71.59;100336.00;4957067;28;20046;-71
2021/04/20 08:14:55;;;;;;;9.80;3.57;;;;;;;17.30;71.40;100336.56;4956229;28;20130;-73
2021/04/20 08:17:38;;;;;;;7.17;3.57;;;;;;;17.62;70.54;100340.84;4955970;28;20126;-72
2021/04/20 08:20:10;;;;;;;5.30;3.30;;;;;;;18.15;69.92;100334.00;4962906;28;20079;-71
2021/04/20 08:22:38;;;;;;;9.53;3.47;;;;;;;18.56;69.21;100326.00;4969551;28;20046;-72
2021/04/20 08:25:25;;;;;;;7.10;3.03;;;;;;;18.66;68.88;100332.09;4961706;28;20310;-72
2021/04/20 08:28:09;;;;;;;3.53;2.50;;;;;;;18.83;68.86;100341.72;4962772;28;20078;-73
2021/04/20 08:30:47;;;;;;;2.72;2.05;;;;;;;19.22;67.90;100319.84;4956491;28;20500;-72
2021/04/20 08:33:17;;;;;;;3.30;2.22;;;;;;;19.55;67.21;100334.03;4956855;28;20489;-73
2021/04/20 08:35:49;;;;;;;5.85;2.60;;;;;;;19.76;66.66;100334.03;4939159;28;20050;-72
2021/04/20 08:38:33;;;;;;;3.10;1.60;;;;;;;20.12;65.73;100325.66;4955159;28;20431;-75
2021/04/20 08:41:49;;;;;;;3.50;1.70;;;;;;;20.30;65.31;100331.94;4965235;28;20055;-75
2021/04/20 08:44:30;;;;;;;2.47;1.40;;;;;;;20.41;64.58;100309.66;4951801;28;20081;-73
2021/04/20 08:47:26;;;;;;;3.53;1.40;;;;;;;21.00;63.58;100320.56;4960783;28;20039;-73
2021/04/20 08:50:00;;;;;;;2.45;1.45;;;;;;;21.58;62.46;100316.66;4958767;28;20051;-73
2021/04/20 08:52:38;;;;;;;5.25;2.47;;;;;;;22.18;61.29;100328.94;4956186;28;20051;-73
2021/04/20 08:55:23;;;;;;;3.35;1.77;;;;;;;22.52;60.53;100332.28;4958918;28;20047;-72
2021/04/20 08:58:08;;;;;;;6.68;2.08;;;;;;;22.69;59.69;100324.19;4968541;28;20039;-73
2021/04/20 09:01:14;;;;;;;1.20;1.10;;;;;;;23.02;58.72;100322.16;4958905;28;20061;-73
2021/04/20 09:03:43;;;;;;;2.33;1.40;;;;;;;23.14;57.67;100330.59;4960617;28;20117;-71
2021/04/20 09:06:38;;;;;;;5.18;2.03;;;;;;;22.68;58.43;100325.41;4954708;28;20043;-72
2021/04/20 09:09:12;;;;;;;3.47;1.30;;;;;;;22.03;58.83;100326.88;4958480;28;20059;-71
2021/04/20 09:11:53;;;;;;;3.13;1.10;;;;;;;21.32;58.98;100315.03;4953942;28;20066;-72
2021/04/20 09:14:30;;;;;;;2.50;1.45;;;;;;;20.87;59.40;100324.59;4961420;28;20043;-73
2021/04/20 09:17:00;;;;;;;2.92;1.10;;;;;;;20.51;59.59;100323.41;4965768;28;20219;-74
2021/04/20 09:19:34;;;;;;;3.72;1.30;;;;;;;20.20;59.73;100326.72;4956234;28;20392;-74
2021/04/20 09:22:07;;;;;;;3.13;1.30;;;;;;;20.04;60.06;100322.94;4948804;28;20058;-74
2021/04/20 09:24:57;;;;;;;3.17;1.17;;;;;;;19.90;60.25;100334.59;4961318;28;20500;-73
2021/04/20 09:27:45;;;;;;;6.85;1.10;;;;;;;19.82;60.36;100326.97;4955877;28;20106;-73
2021/04/20 09:30:17;;;;;;;2.10;0.90;;;;;;;19.80;60.44;100330.19;4958064;28;20492;-74
2021/04/20 09:33:07;;;;;;;2.65;0.93;;;;;;;19.72;60.35;100322.56;4958805;28;20055;-73
2021/04/20 09:35:35;;;;;;;2.58;1.02;;;;;;;19.62;59.85;100321.00;4948977;28;20154;-75
2021/04/20 09:38:03;;;;;;;2.10;0.98;;;;;;;19.49;60.09;100329.78;4958796;28;20054;-74
2021/04/20 09:40:30;;;;;;;3.38;1.00;;;;;;;19.19;60.54;100321.34;4960336;28;20063;-75
2021/04/20 09:43:17;;;;;;;6.75;1.50;;;;;;;18.84;61.12;100326.41;4963870;28;20043;-74
2021/04/20 09:45:58;;;;;;;3.38;1.02;;;;;;;18.33;61.54;100342.41;4959076;28;20055;-70
2021/04/20 09:48:44;;;;;;;2.90;1.15;;;;;;;17.85;62.07;100330.25;4958811;28;20058;-73
2021/04/20 09:51:35;;;;;;;3.25;1.27;;;;;;;17.71;62.85;100347.34;4960463;28;20071;-74
2021/04/20 09:54:30;;;;;;;4.90;1.30;;;;;;;17.68;62.87;100350.81;4954610;28;20047;-74
2021/04/20 09:57:01;;;;;;;4.15;1.70;;;;;;;17.83;63.22;100348.69;4955448;28;20134;-71
2021/04/20 09:59:46;;;;;;;5.25;1.45;;;;;;;17.89;63.29;100348.16;4962102;28;20508;-73
2021/04/20 10:02:49;;;;;;;5.28;1.33;;;;;;;17.90;63.31;100343.34;4962218;28;20050;-71
2021/04/20 10:05:33;;;;;;;6.05;1.60;;;;;;;17.96;63.25;100339.19;4963606;28;20145;-73
2021/04/20 10:08:15;;;;;;;2.78;1.48;;;;;;;18.19;63.55;100346.28;4960485;28;20065;-74
2021/04/20 10:10:49;;;;;;;3.85;1.30;;;;;;;18.44;63.09;100349.34;4956023;28;20130;-74
2021/04/20 10:13:40;;;;;;;7.35;1.50;;;;;;;18.58;62.33;100337.81;4965895;28;20126;-73
2021/04/20 10:16:13;;;;;;;5.93;1.80;;;;;;;18.66;62.62;100336.94;4960639;28;20047;-74
2021/04/20 10:18:51;;;;;;;4.05;1.30;;;;;;;18.80;62.31;100350.88;4955707;28;20051;-74
2021/04/20 10:21:26;;;;;;;15.35;1.58;;;;;;;19.00;61.98;100347.25;4960768;28;20130;-75
2021/04/20 10:24:02;;;;;;;1.50;1.10;;;;;;;19.15;61.96;100334.53;4954676;28;20051;-74
2021/04/20 10:26:54;;;;;;;3.50;1.27;;;;;;;19.28;61.97;100339.09;4963133;28;20046;-75
2021/04/20 10:29:43;;;;;;;3.95;1.63;;;;;;;19.41;61.69;100345.63;4957111;28;20653;-74
2021/04/20 10:32:29;;;;;;;2.63;1.52;;;;;;;19.42;61.47;100345.31;4953776;28;20127;-74
2021/04/20 10:34:57;;;;;;;6.18;2.05;;;;;;;19.49;61.40;100341.09;4955412;28;20330;-74
2021/04/20 10:37:40;;;;;;;4.63;2.20;;;;;;;19.68;60.90;100343.47;4956907;28;20363;-74
2021/04/20 10:40:18;;;;;;;2.88;1.42;;;;;;;19.77;60.74;100336.53;4960005;28;20050;-73
2021/04/20 10:42:48;;;;;;;5.72;1.48;;;;;;;19.74;59.71;100320.22;4963542;28;20050;-72
2021/04/20 10:45:18;;;;;;;5.82;1.60;;;;;;;19.90;59.57;100326.09;4959042;28;20043;-74
2021/04/20 10:47:53;;;;;;;3.80;1.42;;;;;;;19.95;59.26;100313.69;4954222;28;20074;-73
2021/04/20 10:50:26;;;;;;;4.10;1.42;;;;;;;20.15;58.86;100329.81;4962404;28;20043;-75
2021/04/20 10:52:55;;;;;;;1.67;0.98;;;;;;;20.40;58.79;100322.16;4953089;28;20055;-75
2021/04/20 10:55:30;;;;;;;1.47;1.00;;;;;;;20.50;58.47;100324.56;4962144;28;20098;-71
2021/04/20 10:57:58;;;;;;;8.77;1.13;;;;;;;20.66;57.83;100327.53;4952855;28;20377;-73
2021/04/20 11:00:27;;;;;;;4.45;0.85;;;;;;;20.66;57.74;100321.88;4956484;28;20403;-72
2021/04/20 11:02:57;;;;;;;2.03;1.13;;;;;;;20.66;57.56;100299.16;4960142;28;20461;-74
2021/04/20 11:05:24;;;;;;;4.22;1.20;;;;;;;20.68;57.30;100305.31;4954328;28;20328;-73
2021/04/20 11:07:52;;;;;;;2.75;1.15;;;;;;;20.92;56.93;100315.00;4957156;28;20567;-72
2021/04/20 11:10:19;;;;;;;4.00;1.70;;;;;;;21.03;56.50;100319.84;4958329;28;20043;-74
2021/04/20 11:12:50;;;;;;;1.40;0.85;;;;;;;21.21;55.80;100309.03;4958698;28;20053;-74
2021/04/20 11:15:25;;;;;;;2.95;0.93;;;;;;;21.30;55.22;100306.06;4956672;28;20123;-72
2021/04/20 11:17:54;;;;;;;1.45;1.25;;;;;;;21.47;55.18;100305.81;4959875;28;20046;-72
2021/04/20 11:20:33;;;;;;;1.42;0.95;;;;;;;21.58;55.18;100300.44;4956378;28;20087;-71
2021/04/20 11:23:17;;;;;;;1.58;0.90;;;;;;;21.57;54.90;100304.44;4954839;28;20494;-74
2021/04/20 11:25:43;;;;;;;3.85;1.13;;;;;;;21.58;54.55;100319.50;4959140;28;20043;-73
2021/04/20 11:28:17;;;;;;;1.70;0.80;;;;;;;21.42;54.62;100306.03;4960140;28;20448;-72
2021/04/20 11:31:04;;;;;;;3.80;1.05;;;;;;;21.49;54.38;100311.94;4960444;28;20047;-74
2021/04/20 11:33:34;;;;;;;6.32;1.58;;;;;;;21.67;53.64;100297.44;4958741;28;20142;-74
2021/04/20 11:36:15;;;;;;;4.03;1.15;;;;;;;21.74;53.10;100309.00;4958935;28;20094;-74
2021/04/20 11:38:47;;;;;;;7.85;1.27;;;;;;;21.97;53.14;100312.09;4960474;28;20117;-71
2021/04/20 11:41:20;;;;;;;2.38;1.17;;;;;;;22.53;52.31;100316.84;4967587;28;20133;-73
2021/04/20 11:44:00;;;;;;;2.90;0.82;;;;;;;22.41;52.22;100292.16;4965689;28;20105;-73
2021/04/20 11:46:28;;;;;;;2.75;0.80;;;;;;;22.19;52.21;100310.72;4961677;28;20368;-73
2021/04/20 11:49:06;;;;;;;1.23;0.77;;;;;;;21.90;52.46;100306.22;4962394;28;20047;-71
2021/04/20 11:51:38;;;;;;;3.53;0.90;;;;;;;21.73;52.56;100311.00;4961356;28;20074;-73
2021/04/20 11:54:07;;;;;;;1.05;0.50;;;;;;;21.51;52.66;100300.22;4962724;28;20130;-72